Time;durP1;ratioP1;P1;durP2;ratioP2;P2;SDS_P1;SDS_P2;PMS_P1;PMS_P2;Temp;Humidity;BMP_temperature;BMP_pressure;BME280_temperature;BME280_humidity;BME280_pressure;Samples;Min_cycle;Max_cycle;Signal;HPM_P1;HPM_P2
2023/02/08 00:03:04;;;;;;;20.17;7.82;;;;;;;0.32;63.08;102625.09;10250721;28;20067;-62
2023/02/08 00:08:06;;;;;;;17.02;7.78;;;;;;;0.29;63.14;102622.56;10251570;28;20047;-62
2023/02/08 00:13:08;;;;;;;14.93;7.68;;;;;;;0.24;63.52;102619.19;10234386;28;20114;-61
2023/02/08 00:18:09;;;;;;;17.58;7.57;;;;;;;0.21;63.66;102614.88;10260785;28;20039;-61
2023/02/08 00:23:12;;;;;;;16.13;7.22;;;;;;;0.19;63.80;102612.28;10251580;28;20047;-62
2023/02/08 00:28:16;;;;;;;17.65;7.63;;;;;;;0.16;63.72;102617.69;10262345;28;20085;-61
2023/02/08 00:33:17;;;;;;;16.85;6.95;;;;;;;0.13;63.89;102623.06;10240236;28;20086;-63
2023/02/08 00:38:18;;;;;;;14.73;6.90;;;;;;;0.06;63.64;102620.69;10251241;28;20059;-63
2023/02/08 00:43:20;;;;;;;20.20;8.00;;;;;;;0.05;63.62;102618.97;10248345;28;20110;-64
2023/02/08 00:48:22;;;;;;;14.93;7.82;;;;;;;0.03;64.04;102619.00;10244713;28;20089;-62
2023/02/08 00:53:23;;;;;;;18.33;7.68;;;;;;;0.02;64.04;102625.22;10252164;28;20067;-63
2023/02/08 00:58:24;;;;;;;13.60;6.57;;;;;;;-0.06;63.81;102622.84;10256557;28;20047;-61
2023/02/08 01:03:26;;;;;;;15.23;6.38;;;;;;;-0.01;63.88;102615.59;10248964;28;20107;-61
2023/02/08 01:08:28;;;;;;;14.02;6.32;;;;;;;0.04;64.01;102617.22;10259952;28;20067;-62
2023/02/08 01:13:29;;;;;;;9.70;5.78;;;;;;;0.06;63.58;102626.84;10256412;28;20075;-61
2023/02/08 01:18:30;;;;;;;12.63;5.32;;;;;;;0.08;63.99;102618.84;10257628;28;20055;-61
2023/02/08 01:23:32;;;;;;;14.35;6.22;;;;;;;0.05;64.24;102621.63;10266754;28;20059;-62
2023/02/08 01:28:34;;;;;;;12.48;6.10;;;;;;;0.04;64.14;102620.75;10244898;28;20091;-61
2023/02/08 01:33:36;;;;;;;13.40;6.10;;;;;;;-0.05;64.57;102608.69;10246337;28;20121;-62
2023/02/08 01:38:38;;;;;;;14.15;6.55;;;;;;;-0.07;64.01;102607.03;10253111;28;20047;-62
2023/02/08 01:44:04;;;;;;;14.70;5.35;;;;;;;-0.11;64.32;102602.75;10260949;28;20075;-62
2023/02/08 01:49:29;;;;;;;20.33;6.90;;;;;;;-0.14;63.91;102605.50;10257847;28;20110;-62
2023/02/08 01:54:37;;;;;;;12.50;6.07;;;;;;;-0.15;64.50;102611.72;10252672;28;20537;-62
2023/02/08 01:59:47;;;;;;;15.05;6.25;;;;;;;-0.25;64.48;102601.44;10248138;28;20043;-63
2023/02/08 02:04:51;;;;;;;9.95;5.93;;;;;;;-0.27;64.62;102599.75;10252919;28;20675;-62
2023/02/08 02:10:01;;;;;;;12.25;5.30;;;;;;;-0.27;64.18;102603.25;10255253;28;20051;-62
2023/02/08 02:15:04;;;;;;;13.25;5.88;;;;;;;-0.28;64.53;102603.31;10249421;28;20076;-61
2023/02/08 02:20:22;;;;;;;13.85;6.68;;;;;;;-0.32;64.88;102599.03;10251778;28;20051;-62
2023/02/08 02:25:40;;;;;;;19.17;8.07;;;;;;;-0.33;65.09;102613.19;10257519;28;20051;-62
2023/02/08 02:31:06;;;;;;;16.33;8.35;;;;;;;-0.32;64.89;102610.47;10246390;28;20057;-61
2023/02/08 02:36:41;;;;;;;15.25;7.38;;;;;;;-0.31;64.67;102601.63;10236125;28;20051;-62
2023/02/08 02:47:35;;;;;;;19.52;9.50;;;;;;;-0.29;64.88;102602.44;10247290;28;20050;-63
2023/02/08 02:52:47;;;;;;;23.65;10.57;;;;;;;-0.24;65.32;102602.28;10236226;28;20118;-63
2023/02/08 02:57:52;;;;;;;19.95;9.73;;;;;;;-0.28;65.42;102596.22;10256731;28;20055;-62
2023/02/08 03:02:55;;;;;;;20.77;10.07;;;;;;;-0.31;65.23;102596.34;10215163;28;20055;-62
2023/02/08 03:08:47;;;;;;;23.63;9.70;;;;;;;-0.30;65.41;102590.13;10245452;28;20411;-62
2023/02/08 03:14:13;;;;;;;19.77;8.30;;;;;;;-0.29;65.29;102588.38;10231360;28;20410;-62
2023/02/08 03:19:20;;;;;;;19.08;9.63;;;;;;;-0.29;65.16;102589.22;10247601;28;20110;-62
2023/02/08 03:24:28;;;;;;;20.88;9.13;;;;;;;-0.31;65.65;102587.56;10253814;28;20090;-62
2023/02/08 03:29:40;;;;;;;21.33;10.27;;;;;;;-0.34;65.33;102591.16;10250780;28;20087;-62
2023/02/08 03:34:49;;;;;;;19.85;9.32;;;;;;;-0.41;65.90;102589.63;10251225;28;20075;-62
2023/02/08 03:40:06;;;;;;;15.98;7.88;;;;;;;-0.45;65.64;102601.22;10244837;28;20067;-62
2023/02/08 03:45:15;;;;;;;15.48;6.85;;;;;;;-0.56;66.18;102603.31;10253983;28;20051;-61
2023/02/08 03:50:19;;;;;;;16.33;7.20;;;;;;;-0.67;65.92;102595.72;10259145;28;20078;-62
2023/02/08 03:55:28;;;;;;;18.25;6.72;;;;;;;-0.71;65.80;102597.63;10263087;28;20110;-61
2023/02/08 04:00:35;;;;;;;13.35;7.38;;;;;;;-0.68;65.67;102599.28;10250043;28;20106;-61
2023/02/08 04:05:36;;;;;;;17.13;8.20;;;;;;;-0.72;65.97;102598.53;10256826;28;20099;-62
2023/02/08 04:10:38;;;;;;;16.77;7.40;;;;;;;-0.71;66.13;102604.66;10257311;28;20321;-62
2023/02/08 04:15:40;;;;;;;17.85;7.97;;;;;;;-0.77;66.01;102605.72;10246481;28;20114;-62
2023/02/08 04:20:41;;;;;;;16.17;7.60;;;;;;;-0.76;65.88;102610.09;10244725;28;20064;-62
2023/02/08 04:25:43;;;;;;;18.27;8.05;;;;;;;-0.76;65.92;102602.16;10248809;28;20582;-62
2023/02/08 04:30:44;;;;;;;17.98;8.77;;;;;;;-0.77;66.12;102605.72;10251621;28;20471;-62
2023/02/08 04:35:46;;;;;;;23.45;9.68;;;;;;;-0.76;66.19;102609.22;10242588;28;20829;-62
2023/02/08 04:40:47;;;;;;;16.70;9.18;;;;;;;-0.75;66.11;102601.28;10246324;28;20082;-63
2023/02/08 04:45:50;;;;;;;20.65;9.38;;;;;;;-0.74;66.40;102605.63;10247939;28;20039;-62
2023/02/08 04:50:55;;;;;;;16.80;8.18;;;;;;;-0.69;66.30;102600.19;10251967;28;20452;-62
2023/02/08 04:55:56;;;;;;;18.08;8.75;;;;;;;-0.69;66.47;102584.34;10242143;28;20057;-62
2023/02/08 05:00:58;;;;;;;22.15;9.77;;;;;;;-0.73;66.77;102582.72;10233542;28;20066;-62
2023/02/08 05:05:59;;;;;;;22.60;10.88;;;;;;;-0.72;66.75;102580.03;10250113;28;20584;-62
2023/02/08 05:11:01;;;;;;;22.70;10.50;;;;;;;-0.71;66.89;102580.88;10258142;28;20117;-62
2023/02/08 05:16:03;;;;;;;24.60;10.50;;;;;;;-0.73;66.75;102586.25;10252866;28;20089;-64
2023/02/08 05:21:04;;;;;;;21.58;9.77;;;;;;;-0.74;67.06;102583.63;10261359;28;20063;-62
2023/02/08 05:26:07;;;;;;;23.58;10.48;;;;;;;-0.76;66.81;102585.47;10223415;28;20716;-62
2023/02/08 05:31:27;;;;;;;25.58;9.85;;;;;;;-0.75;66.83;102585.44;10247066;28;20078;-62
2023/02/08 05:36:29;;;;;;;21.92;9.98;;;;;;;-0.77;67.32;102587.25;10248858;28;20350;-62
2023/02/08 05:41:30;;;;;;;20.25;9.45;;;;;;;-0.72;66.72;102587.09;10242473;28;20063;-63
2023/02/08 05:46:31;;;;;;;17.77;9.50;;;;;;;-0.73;66.77;102588.00;10245467;28;20051;-62
2023/02/08 05:51:33;;;;;;;17.75;8.63;;;;;;;-0.72;66.69;102593.25;10245851;28;20106;-62
2023/02/08 05:56:34;;;;;;;19.50;9.30;;;;;;;-0.69;67.02;102598.44;10254390;28;20066;-62
2023/02/08 06:01:36;;;;;;;20.65;9.30;;;;;;;-0.67;66.52;102598.38;10254434;28;20146;-62
2023/02/08 06:06:37;;;;;;;20.92;9.73;;;;;;;-0.68;66.88;102601.94;10257012;28;20109;-63
2023/02/08 06:11:39;;;;;;;20.55;8.77;;;;;;;-0.63;67.07;102597.38;10249694;28;20109;-61
2023/02/08 06:16:40;;;;;;;15.35;8.10;;;;;;;-0.68;67.00;102607.22;10252769;28;20089;-61
2023/02/08 06:21:41;;;;;;;17.85;9.05;;;;;;;-0.65;67.28;102615.91;10260703;28;20079;-63
2023/02/08 06:26:43;;;;;;;19.35;9.32;;;;;;;-0.64;66.93;102614.97;10266885;28;20055;-61
2023/02/08 06:31:44;;;;;;;21.10;8.55;;;;;;;-0.66;67.19;102618.59;10259356;28;20056;-61
2023/02/08 06:36:46;;;;;;;17.15;8.60;;;;;;;-0.65;67.01;102612.41;10249656;28;20065;-61
2023/02/08 06:41:47;;;;;;;17.33;9.02;;;;;;;-0.63;66.82;102613.22;10271217;28;20057;-63
2023/02/08 06:46:49;;;;;;;25.45;8.90;;;;;;;-0.54;66.23;102623.50;10290506;28;20055;-63
2023/02/08 06:51:50;;;;;;;19.40;7.70;;;;;;;-0.48;66.58;102620.66;10291304;28;20035;-64
2023/02/08 06:56:52;;;;;;;14.95;7.78;;;;;;;-0.46;66.66;102624.09;10293353;28;20070;-63
2023/02/08 07:01:54;;;;;;;18.00;8.68;;;;;;;-0.44;66.60;102618.78;10297315;28;20132;-64
2023/02/08 07:06:56;;;;;;;21.90;9.43;;;;;;;-0.44;66.23;102619.63;10289956;28;20052;-63
2023/02/08 07:11:57;;;;;;;15.98;8.85;;;;;;;-0.44;66.66;102621.44;10283261;28;20047;-64
2023/02/08 07:16:59;;;;;;;17.23;8.20;;;;;;;-0.45;66.78;102622.34;10296709;28;20051;-64
2023/02/08 07:22:06;;;;;;;23.25;8.07;;;;;;;-0.49;67.06;102615.44;10285768;28;20039;-64
2023/02/08 07:27:10;;;;;;;20.88;8.95;;;;;;;-0.52;66.86;102624.31;10286837;28;20093;-64
2023/02/08 07:32:12;;;;;;;20.48;8.52;;;;;;;-0.51;67.02;102617.28;10282550;28;20048;-65
2023/02/08 07:37:13;;;;;;;17.42;9.57;;;;;;;-0.45;66.61;102617.94;10287233;28;20057;-65
2023/02/08 07:42:15;;;;;;;19.55;8.38;;;;;;;-0.35;66.74;102613.22;10293851;28;20063;-65
2023/02/08 07:47:16;;;;;;;20.20;9.27;;;;;;;-0.28;66.39;102605.94;10286989;28;20102;-64
2023/02/08 07:52:18;;;;;;;19.30;9.48;;;;;;;-0.19;66.60;102605.66;10277997;28;20054;-64
2023/02/08 07:57:20;;;;;;;20.98;10.30;;;;;;;-0.13;66.46;102594.88;10286664;28;20043;-63
2023/02/08 08:02:22;;;;;;;20.75;8.98;;;;;;;-0.03;66.72;102609.50;10290758;28;20073;-64
2023/02/08 08:07:24;;;;;;;21.83;9.75;;;;;;;0.09;66.70;102613.50;10288294;28;20051;-63
2023/02/08 08:12:25;;;;;;;16.98;8.48;;;;;;;0.15;66.42;102602.72;10284859;28;20110;-64
2023/02/08 08:17:27;;;;;;;16.02;8.38;;;;;;;0.26;66.69;102606.78;10291983;28;20065;-64
2023/02/08 08:22:30;;;;;;;17.67;9.10;;;;;;;0.35;66.32;102603.81;10384443;23;20051;-89
2023/02/08 08:27:33;;;;;;;17.80;8.73;;;;;;;0.50;66.91;102600.63;10278857;28;20051;-91
2023/02/08 08:32:36;;;;;;;14.90;7.60;;;;;;;0.66;66.44;102592.16;10286381;28;20062;-91
2023/02/08 08:37:38;;;;;;;21.45;8.57;;;;;;;0.78;66.09;102592.53;10283299;28;20035;-91
2023/02/08 08:42:39;;;;;;;19.25;7.93;;;;;;;0.96;66.35;102590.13;10286390;28;20182;-91
2023/02/08 08:47:41;;;;;;;20.85;7.30;;;;;;;1.04;66.70;102590.69;10847681;23;20102;-64
2023/02/08 08:52:44;;;;;;;19.65;8.38;;;;;;;1.25;66.38;102577.56;10672764;23;20088;-90
2023/02/08 08:57:46;;;;;;;16.10;6.90;;;;;;;1.41;65.57;102586.63;10289751;28;20051;-91
2023/02/08 09:02:48;;;;;;;18.70;7.28;;;;;;;1.59;65.41;102587.66;10292844;28;20181;-90
2023/02/08 09:07:49;;;;;;;14.32;6.32;;;;;;;1.77;65.40;102581.59;10270921;28;20093;-92
2023/02/08 09:12:51;;;;;;;17.45;7.30;;;;;;;1.93;65.49;102580.94;10264621;28;20057;-91
2023/02/08 09:17:53;;;;;;;12.80;6.95;;;;;;;2.09;64.79;102581.16;10273325;28;20050;-92
2023/02/08 09:22:55;;;;;;;16.10;6.13;;;;;;;2.23;64.20;102585.88;10283318;23;20085;-65
2023/02/08 09:27:57;;;;;;;13.82;5.30;;;;;;;2.32;63.93;102583.69;10263459;28;20055;-65
2023/02/08 09:32:58;;;;;;;23.02;7.38;;;;;;;2.50;63.75;102570.53;10261189;28;20053;-66
2023/02/08 09:38:03;;;;;;;11.60;6.25;;;;;;;2.70;62.25;102561.66;10250863;28;20447;-65
2023/02/08 09:43:27;;;;;;;11.52;5.78;;;;;;;2.78;62.34;102571.03;10259966;28;20110;-66
2023/02/08 09:48:37;;;;;;;13.05;5.68;;;;;;;2.88;61.62;102574.09;10265405;28;20062;-66
2023/02/08 09:53:45;;;;;;;12.77;6.10;;;;;;;3.06;60.73;102572.41;10263859;28;20055;-66
2023/02/08 09:58:51;;;;;;;13.38;6.43;;;;;;;3.21;60.74;102568.13;10259133;28;20054;-66
2023/02/08 10:04:01;;;;;;;12.70;6.22;;;;;;;3.34;59.78;102576.41;10258100;28;20130;-66
2023/02/08 10:09:13;;;;;;;13.38;6.30;;;;;;;3.55;59.79;102575.38;10262100;28;20047;-66
2023/02/08 10:14:14;;;;;;;11.60;5.78;;;;;;;3.72;59.56;102571.00;10270673;28;20095;-62
2023/02/08 10:19:32;;;;;;;15.00;6.88;;;;;;;3.80;59.16;102571.47;10271426;28;20051;-62
2023/02/08 10:25:08;;;;;;;14.27;7.28;;;;;;;3.93;58.71;102563.72;10270671;28;20058;-64
2023/02/08 10:30:13;;;;;;;13.50;6.75;;;;;;;4.01;58.48;102558.88;10279769;28;20051;-62
2023/02/08 10:35:31;;;;;;;12.45;6.82;;;;;;;4.15;57.51;102558.19;10289715;28;20047;-63
2023/02/08 10:40:38;;;;;;;12.55;6.57;;;;;;;4.25;57.33;102556.75;10305592;28;20047;-64
2023/02/08 10:45:42;;;;;;;;;;;;;;;4.34;57.82;102548.28;10297107;28;20047;-64
2023/02/08 10:50:47;;;;;;;16.58;7.57;;;;;;;4.47;57.31;102547.63;10282241;28;19969;-64
2023/02/08 10:55:49;;;;;;;16.10;6.70;;;;;;;4.62;56.94;102538.81;10280575;28;20055;-64
2023/02/08 11:00:51;;;;;;;15.82;7.38;;;;;;;4.70;56.65;102523.28;10286419;28;20047;-63
2023/02/08 11:05:53;;;;;;;15.98;8.00;;;;;;;4.87;56.07;102522.34;10273368;28;20051;-63
2023/02/08 11:11:08;;;;;;;16.73;7.22;;;;;;;4.95;55.97;102506.78;10270971;28;20368;-63
2023/02/08 11:16:12;;;;;;;15.50;8.50;;;;;;;5.10;55.36;102497.06;10267575;28;20059;-63
2023/02/08 11:21:41;;;;;;;17.52;7.43;;;;;;;5.16;54.53;102496.72;10275948;28;20062;-63
2023/02/08 11:26:42;;;;;;;17.15;6.97;;;;;;;5.18;54.67;102498.44;10269358;28;20055;-63
2023/02/08 11:31:59;;;;;;;18.13;7.78;;;;;;;5.31;53.88;102489.66;10254887;28;20051;-63
2023/02/08 11:37:14;;;;;;;16.35;7.97;;;;;;;5.27;54.00;102484.56;10273295;28;20085;-63
2023/02/08 11:42:21;;;;;;;16.88;8.35;;;;;;;5.46;53.99;102476.38;10272832;28;20058;-64
2023/02/08 11:47:33;;;;;;;14.68;7.07;;;;;;;5.60;53.18;102472.88;10264764;28;20577;-62
2023/02/08 11:52:38;;;;;;;14.55;6.93;;;;;;;5.74;52.16;102475.56;10280103;28;20050;-63
2023/02/08 11:58:03;;;;;;;15.52;7.55;;;;;;;5.86;51.88;102458.81;10276723;28;20071;-62
2023/02/08 12:03:14;;;;;;;15.75;7.53;;;;;;;6.01;51.23;102459.75;10281242;28;20117;-63
2023/02/08 12:08:30;;;;;;;16.35;6.95;;;;;;;6.14;50.69;102452.69;10276454;28;20086;-63
2023/02/08 12:14:09;;;;;;;13.38;6.65;;;;;;;6.19;50.59;102438.22;10280201;28;20395;-63
2023/02/08 12:19:40;;;;;;;12.00;7.25;;;;;;;6.26;49.74;102434.19;10279084;28;20054;-64
2023/02/08 12:25:20;;;;;;;13.07;5.75;;;;;;;6.38;49.16;102430.75;10257631;28;20455;-63
2023/02/08 12:30:32;;;;;;;11.07;6.05;;;;;;;6.47;48.56;102422.13;10264175;28;20450;-63
2023/02/08 12:36:04;;;;;;;17.02;7.38;;;;;;;6.55;48.83;102410.97;10260948;28;20107;-62
2023/02/08 12:41:28;;;;;;;13.75;6.47;;;;;;;6.68;48.23;102414.56;10268369;28;20530;-64
2023/02/08 12:46:48;;;;;;;14.60;6.72;;;;;;;6.65;47.99;102403.22;10275840;28;20494;-67
2023/02/08 12:52:02;;;;;;;13.80;6.38;;;;;;;6.76;48.36;102395.34;10284484;28;20121;-64
2023/02/08 12:57:05;;;;;;;11.40;5.22;;;;;;;6.83;47.30;102386.00;10277994;28;20082;-65
2023/02/08 13:02:25;;;;;;;11.60;6.03;;;;;;;6.95;46.25;102371.81;10282826;28;20047;-65
2023/02/08 13:07:37;;;;;;;10.20;4.63;;;;;;;7.09;45.92;102365.53;10277773;28;20055;-64
2023/02/08 13:12:43;;;;;;;18.70;4.97;;;;;;;7.15;45.66;102364.25;10279250;28;20043;-66
2023/02/08 13:17:57;;;;;;;10.50;5.10;;;;;;;7.26;44.96;102355.50;10268597;28;20043;-64
2023/02/08 13:23:12;;;;;;;7.22;4.15;;;;;;;7.28;44.47;102346.41;10266437;28;20118;-65
2023/02/08 13:28:24;;;;;;;9.93;4.35;;;;;;;7.34;44.83;102340.63;10267367;28;20119;-64
2023/02/08 13:33:52;;;;;;;9.70;5.50;;;;;;;7.33;44.22;102338.91;10266383;28;20076;-67
2023/02/08 13:39:40;;;;;;;10.25;6.05;;;;;;;7.28;44.73;102329.50;10189514;29;21042;-65
2023/02/08 13:44:47;;;;;;;15.80;6.70;;;;;;;7.16;45.48;102320.50;10188482;29;20060;-66
2023/02/08 13:49:48;;;;;;;12.43;6.22;;;;;;;7.37;45.28;102310.16;10184258;29;20055;-65
2023/02/08 13:55:32;;;;;;;16.98;7.93;;;;;;;7.33;45.46;102298.78;10206124;28;20108;-64
2023/02/08 14:00:35;;;;;;;11.68;6.25;;;;;;;7.31;44.69;102299.88;10271566;28;20050;-65
2023/02/08 14:05:47;;;;;;;12.38;5.43;;;;;;;7.35;44.14;102309.41;10269592;28;20051;-67
2023/02/08 14:11:19;;;;;;;14.73;5.65;;;;;;;7.30;44.06;102299.00;10259620;28;20044;-65
2023/02/08 14:16:32;;;;;;;15.20;5.22;;;;;;;7.42;44.06;102301.78;10245958;28;20113;-64
2023/02/08 14:21:42;;;;;;;10.73;5.28;;;;;;;7.38;43.48;102295.78;10279882;28;20054;-65
2023/02/08 14:26:44;;;;;;;10.60;5.38;;;;;;;7.41;44.06;102295.59;10277475;28;20418;-64
2023/02/08 14:31:47;;;;;;;10.18;4.80;;;;;;;7.48;43.44;102280.78;10262101;28;20130;-65
2023/02/08 14:36:58;;;;;;;11.07;5.53;;;;;;;7.35;42.86;102275.47;10266540;28;20086;-64
2023/02/08 14:42:06;;;;;;;9.52;4.60;;;;;;;7.45;43.24;102270.31;10252469;28;20058;-66
2023/02/08 14:47:30;;;;;;;7.60;4.05;;;;;;;7.51;42.05;102264.53;10257344;28;20078;-66
2023/02/08 14:52:33;;;;;;;10.07;4.25;;;;;;;7.53;41.89;102256.41;10258533;28;20051;-66
2023/02/08 14:57:36;;;;;;;8.18;4.18;;;;;;;7.54;42.33;102244.72;10262315;28;20054;-66
2023/02/08 15:02:40;;;;;;;8.27;3.42;;;;;;;7.51;41.67;102248.47;10264171;28;20429;-65
2023/02/08 15:07:50;;;;;;;7.45;3.75;;;;;;;7.50;41.83;102243.22;10263153;28;20051;-64
2023/02/08 15:12:55;;;;;;;8.18;4.00;;;;;;;7.52;41.63;102247.53;10260955;28;20058;-65
2023/02/08 15:17:58;;;;;;;6.97;3.00;;;;;;;7.46;41.23;102245.25;10247364;28;20047;-63
2023/02/08 15:23:17;;;;;;;7.72;3.30;;;;;;;7.38;41.06;102234.25;10264320;28;20081;-64
2023/02/08 15:28:21;;;;;;;7.65;3.15;;;;;;;7.37;41.83;102229.03;10258804;28;20091;-65
2023/02/08 15:33:23;;;;;;;10.43;4.03;;;;;;;7.45;41.14;102222.16;10266183;28;20059;-64
2023/02/08 15:38:27;;;;;;;8.98;3.15;;;;;;;7.38;40.81;102218.19;10266444;28;20054;-64
2023/02/08 15:43:29;;;;;;;8.18;3.50;;;;;;;7.38;40.32;102217.34;10265684;28;20114;-65
2023/02/08 15:48:32;;;;;;;6.53;2.90;;;;;;;7.36;40.64;102206.75;10270810;28;20581;-64
2023/02/08 15:53:34;;;;;;;5.45;2.70;;;;;;;7.28;41.16;102207.28;10274771;28;20086;-64
2023/02/08 15:58:39;;;;;;;5.45;3.10;;;;;;;7.13;41.43;102213.75;10256415;28;20063;-65
2023/02/08 16:03:46;;;;;;;5.93;2.25;;;;;;;7.01;41.72;102211.91;10274339;28;20079;-65
2023/02/08 16:08:49;;;;;;;8.73;3.20;;;;;;;6.97;41.15;102205.06;10244020;28;20039;-64
2023/02/08 16:13:53;;;;;;;7.72;3.47;;;;;;;6.84;41.83;102200.56;10273254;28;20134;-65
2023/02/08 16:19:02;;;;;;;8.50;3.60;;;;;;;6.75;40.99;102202.06;10280789;28;20051;-65
2023/02/08 16:24:09;;;;;;;10.77;4.45;;;;;;;6.64;41.86;102193.94;10291093;28;20058;-66
2023/02/08 16:29:22;;;;;;;10.45;3.67;;;;;;;6.50;41.70;102196.69;10283431;28;20055;-65
2023/02/08 16:34:23;;;;;;;8.43;5.20;;;;;;;6.37;41.88;102202.00;10285334;28;20047;-63
2023/02/08 16:39:36;;;;;;;12.65;6.70;;;;;;;6.23;42.24;102196.72;10285190;28;20054;-64
2023/02/08 16:44:37;;;;;;;11.23;5.38;;;;;;;6.09;42.50;102203.81;10274489;28;20055;-64
2023/02/08 16:49:39;;;;;;;15.68;5.75;;;;;;;5.95;42.66;102203.88;10274854;28;20072;-65
2023/02/08 16:54:40;;;;;;;8.13;4.25;;;;;;;5.76;43.70;102212.16;10270600;28;20066;-65
2023/02/08 16:59:41;;;;;;;13.73;5.57;;;;;;;5.57;43.99;102216.03;10256493;28;20495;-65
2023/02/08 17:04:43;;;;;;;13.18;6.05;;;;;;;5.40;44.48;102220.72;10263744;28;20043;-64
2023/02/08 17:09:44;;;;;;;14.63;6.88;;;;;;;5.20;45.23;102222.81;10271594;28;20082;-61
2023/02/08 17:14:46;;;;;;;21.70;7.10;;;;;;;5.03;45.35;102210.50;10285711;28;20126;-63
2023/02/08 17:19:47;;;;;;;16.55;7.78;;;;;;;4.81;46.05;102213.63;10255289;28;20099;-60
2023/02/08 17:24:48;;;;;;;18.10;9.07;;;;;;;4.64;46.55;102222.63;10285129;28;20059;-60
2023/02/08 17:29:50;;;;;;;13.55;7.32;;;;;;;4.46;47.11;102219.22;10285269;28;20078;-61
2023/02/08 17:34:53;;;;;;;23.15;6.97;;;;;;;4.28;47.37;102214.97;10273241;28;20067;-61
2023/02/08 17:39:55;;;;;;;24.95;10.10;;;;;;;4.13;47.52;102224.72;10284975;28;20043;-61
2023/02/08 17:44:57;;;;;;;20.65;7.85;;;;;;;4.02;47.53;102220.00;10286271;28;20052;-59
2023/02/08 17:49:58;;;;;;;15.95;7.75;;;;;;;3.93;47.80;102215.19;10281938;28;20073;-59
2023/02/08 17:55:00;;;;;;;13.50;6.72;;;;;;;3.88;47.86;102223.44;10269028;28;20058;-59
2023/02/08 18:00:07;;;;;;;14.82;6.45;;;;;;;3.78;47.94;102227.56;10280000;28;20058;-63
2023/02/08 18:05:09;;;;;;;18.10;6.22;;;;;;;3.67;48.36;102219.31;10282042;28;20102;-59
2023/02/08 18:10:12;;;;;;;19.83;8.38;;;;;;;3.52;49.25;102219.22;10278370;28;20088;-59
2023/02/08 18:15:18;;;;;;;18.83;7.65;;;;;;;3.34;49.60;102210.44;10271403;28;20050;-61
2023/02/08 18:20:19;;;;;;;18.70;8.40;;;;;;;3.18;49.52;102218.38;10282139;28;20058;-58
2023/02/08 18:25:21;;;;;;;14.98;7.40;;;;;;;3.03;50.32;102218.34;10280189;28;20083;-61
2023/02/08 18:30:24;;;;;;;14.48;6.05;;;;;;;2.97;50.73;102219.50;10281837;28;20054;-61
2023/02/08 18:35:25;;;;;;;15.25;6.80;;;;;;;2.91;49.95;102215.38;10292687;28;20056;-61
2023/02/08 18:40:27;;;;;;;18.35;8.07;;;;;;;2.82;50.87;102223.81;10286923;28;20043;-63
2023/02/08 18:45:28;;;;;;;28.45;12.38;;;;;;;2.71;50.84;102220.88;10304169;28;20062;-59
2023/02/08 18:50:30;;;;;;;24.35;11.27;;;;;;;2.64;51.71;102211.50;10290098;28;20082;-62
2023/02/08 18:55:31;;;;;;;36.60;16.38;;;;;;;2.52;51.90;102218.28;10297247;28;20055;-59
2023/02/08 19:00:32;;;;;;;29.58;14.27;;;;;;;2.42;52.21;102217.03;10288291;28;20529;-59
2023/02/08 19:05:37;;;;;;;29.17;12.45;;;;;;;2.33;51.69;102229.84;10272811;28;20409;-62
2023/02/08 19:10:40;;;;;;;20.55;10.50;;;;;;;2.23;52.64;102233.00;10277396;28;20050;-60
2023/02/08 19:15:42;;;;;;;19.08;8.35;;;;;;;2.12;52.74;102231.72;10283920;28;20123;-62
2023/02/08 19:20:43;;;;;;;20.30;8.45;;;;;;;2.13;52.58;102238.78;10291410;28;20121;-61
2023/02/08 19:25:45;;;;;;;23.25;10.38;;;;;;;2.06;52.52;102225.88;10280275;28;20054;-60
2023/02/08 19:30:46;;;;;;;22.98;10.90;;;;;;;2.01;52.72;102234.03;10263987;28;20047;-62
2023/02/08 19:35:48;;;;;;;21.98;8.57;;;;;;;1.95;53.50;102229.03;10289449;28;20050;-63
2023/02/08 19:40:54;;;;;;;18.55;10.05;;;;;;;1.78;53.72;102235.16;10284300;28;20047;-63
2023/02/08 19:45:56;;;;;;;17.15;8.18;;;;;;;1.77;53.90;102231.63;10289353;28;20046;-58
2023/02/08 19:50:59;;;;;;;23.90;10.50;;;;;;;1.81;53.14;102231.50;10263135;28;20101;-63
2023/02/08 19:56:07;;;;;;;18.08;9.15;;;;;;;1.68;54.26;102234.72;10294948;28;20109;-62
2023/02/08 20:01:17;;;;;;;24.52;10.20;;;;;;;1.66;53.65;102225.97;10289670;28;20026;-61
2023/02/08 20:06:25;;;;;;;29.83;13.95;;;;;;;1.59;53.97;102229.84;10294916;28;20114;-60
2023/02/08 20:11:29;;;;;;;31.73;15.95;;;;;;;1.52;54.23;102221.31;10301562;28;20109;-63
2023/02/08 20:16:32;;;;;;;23.17;11.95;;;;;;;1.47;54.81;102227.78;10301527;28;20047;-60
2023/02/08 20:21:38;;;;;;;27.05;14.43;;;;;;;1.38;54.92;102227.25;10300336;28;20062;-62
2023/02/08 20:26:42;;;;;;;17.05;8.27;;;;;;;1.31;55.41;102228.47;10294771;28;20779;-62
2023/02/08 20:31:46;;;;;;;20.67;10.05;;;;;;;1.19;56.19;102235.16;10300996;28;20042;-65
2023/02/08 20:36:48;;;;;;;24.38;12.00;;;;;;;1.13;55.83;102232.81;10301766;28;20077;-63
2023/02/08 20:42:06;;;;;;;37.05;11.98;;;;;;;1.07;56.38;102232.22;10301993;28;20061;-62
2023/02/08 20:47:09;;;;;;;18.33;9.25;;;;;;;1.06;56.36;102233.13;10302458;28;20043;-63
2023/02/08 20:52:11;;;;;;;18.48;9.45;;;;;;;1.04;56.54;102225.25;10294607;28;20188;-63
2023/02/08 20:57:14;;;;;;;25.40;11.27;;;;;;;0.98;56.70;102229.03;10300827;28;20057;-61
2023/02/08 21:02:17;;;;;;;19.80;8.73;;;;;;;0.91;56.70;102224.94;10313787;28;20064;-64
2023/02/08 21:07:19;;;;;;;23.65;10.00;;;;;;;0.88;56.41;102230.34;10298870;28;20043;-63
2023/02/08 21:12:20;;;;;;;16.90;8.50;;;;;;;0.82;56.28;102221.84;10299294;28;20050;-62
2023/02/08 21:17:22;;;;;;;21.50;9.30;;;;;;;0.68;57.14;102227.72;10301288;28;20051;-62
2023/02/08 21:22:23;;;;;;;18.05;8.95;;;;;;;0.70;57.08;102231.16;10295998;28;20103;-61
2023/02/08 21:27:24;;;;;;;20.42;9.63;;;;;;;0.62;56.77;102226.19;10295814;28;20057;-62
2023/02/08 21:32:26;;;;;;;22.23;9.23;;;;;;;0.66;57.49;102219.00;10293611;28;20460;-60
2023/02/08 21:37:27;;;;;;;22.55;9.68;;;;;;;0.67;56.66;102215.41;10291014;28;20062;-59
2023/02/08 21:42:29;;;;;;;23.15;9.85;;;;;;;0.60;56.94;102204.22;10282587;28;20051;-59
2023/02/08 21:47:30;;;;;;;23.00;9.68;;;;;;;0.60;57.70;102196.28;10297525;28;20463;-61
2023/02/08 21:57:51;;;;;;;19.65;9.38;;;;;;;0.49;57.64;102194.09;10299621;28;20055;-64
2023/02/08 22:02:52;;;;;;;15.63;9.20;;;;;;;0.47;57.51;102184.50;10297187;28;20110;-60
2023/02/08 22:07:56;;;;;;;16.40;9.57;;;;;;;0.43;58.18;102189.06;10289897;28;20106;-60
2023/02/08 22:12:58;;;;;;;19.30;7.90;;;;;;;0.34;57.59;102182.38;10289871;28;20109;-63
2023/02/08 22:18:03;;;;;;;17.10;8.27;;;;;;;0.25;57.98;102181.91;10294218;28;20113;-62
2023/02/08 22:23:04;;;;;;;24.88;11.07;;;;;;;0.16;58.80;102183.16;10286661;28;20182;-62
2023/02/08 22:28:07;;;;;;;23.88;9.65;;;;;;;0.16;57.89;102183.16;10282697;28;20430;-61
2023/02/08 22:33:08;;;;;;;16.75;8.57;;;;;;;0.16;58.44;102184.03;10293327;28;20082;-62
2023/02/08 22:38:10;;;;;;;17.42;7.95;;;;;;;0.03;59.13;102177.50;10291629;28;20192;-60
2023/02/08 22:43:11;;;;;;;20.80;9.27;;;;;;;-0.01;58.51;102178.56;10290719;28;20083;-60
2023/02/08 22:48:13;;;;;;;20.42;8.63;;;;;;;0.03;58.29;102181.94;10284680;28;20051;-60
2023/02/08 22:53:14;;;;;;;21.70;9.02;;;;;;;-0.04;59.06;102173.38;10282547;28;20047;-61
2023/02/08 22:58:15;;;;;;;16.90;8.40;;;;;;;-0.09;58.83;102172.72;10276539;28;20059;-59
2023/02/08 23:03:17;;;;;;;18.50;8.45;;;;;;;-0.07;59.35;102187.59;10277961;28;20054;-62
2023/02/08 23:08:20;;;;;;;14.20;7.63;;;;;;;-0.22;59.51;102186.44;10261608;28;20448;-59
2023/02/08 23:13:21;;;;;;;17.05;8.15;;;;;;;-0.34;60.36;102183.41;10293165;28;20570;-60
2023/02/08 23:18:23;;;;;;;20.67;8.20;;;;;;;-0.29;59.62;102179.66;10295464;28;20209;-62
2023/02/08 23:23:24;;;;;;;19.90;7.75;;;;;;;-0.38;59.42;102187.09;10289486;28;20062;-60
2023/02/08 23:28:25;;;;;;;17.80;7.53;;;;;;;-0.34;60.09;102180.75;10291972;28;20054;-61
2023/02/08 23:33:27;;;;;;;20.05;8.15;;;;;;;-0.27;59.78;102180.47;10284962;28;20090;-60